Monday, February 19, 2018, 10:04 AM GMT
Back to Local

CWOD, Normandin

Location: , , Canada Lat: 48.833
Local Time: 10:04 AM GMT (10:04 GMT) Lon: -72.55
Time Zone: GMT Elev: 449 ft

Show me the last for .
Show Decoded

2018-02-19 09:00 METAR CWOD 190900Z AUTO 14008KT M07/M08 RMK AO1 SOG 23 8007 SLP223 T10681083 =
2018-02-19 08:00 METAR CWOD 190800Z AUTO 11002KT M09/M12 RMK AO1 SOG 23 6009 SLP227 T10941123 =
2018-02-19 07:00 METAR CWOD 190700Z AUTO 15003KT M10/M14 RMK AO1 SOG 23 6007 SLP230 T11001135 =
2018-02-19 06:00 METAR CWOD 190600Z AUTO 00000KT M11/M14 RMK AO1 SOG 23 8010 SLP230 T11141143 =
2018-02-19 05:00 METAR CWOD 190500Z AUTO 02001KT M12/M15 RMK AO1 SOG 22 7005 SLP237 T11181151 =
2018-02-19 04:00 METAR CWOD 190400Z AUTO 14002KT M12/M16 RMK AO1 SOG 22 0000 SLP238 T11181157 =
2018-02-19 03:00 METAR CWOD 190300Z AUTO 00000KT M13/M17 RMK AO1 SOG 22 0006 SLP241 T11271168 =
2018-02-19 02:00 METAR CWOD 190200Z AUTO 22005KT M14/M18 RMK AO1 SOG 22 1014 SLP243 T11411179 =
2018-02-19 01:00 METAR CWOD 190100Z AUTO 17005KT M12/M18 RMK AO1 SOG 22 3012 SLP239 T11151179 =
2018-02-19 00:00 METAR CWOD 190000Z AUTO 23003KT M05/M14 RMK AO1 SOG 22 1026 SLP234 T10491137 =
2018-02-18 23:00 METAR CWOD 182300Z AUTO 27002KT M06/M14 RMK AO1 SOG 22 1032 SLP227 T10561144 =
2018-02-18 22:00 METAR CWOD 182200Z AUTO 27011KT M04/M12 RMK AO1 SOG 22 3035 PK WND 27019/2119
                 SLP225 T10351118 =
2018-02-18 21:00 METAR CWOD 182100Z AUTO 30008KT M03/M13 RMK AO1 SOG 22 3024 SLP207 T10321129 =
2018-02-18 20:00 METAR CWOD 182000Z AUTO 29010KT M03/M13 RMK AO1 SOG 22 1023 PK WND 30017/1908
                 SLP194 T10301128 =
2018-02-18 19:00 METAR CWOD 181900Z AUTO 29013G18KT M02/M10 RMK AO1 SOG 22 1025 PK WND 28018/1824
                 SLP189 T10241102 =
2018-02-18 18:00 METAR CWOD 181800Z AUTO 30011KT M02/M09 RMK AO1 SOG 22 3028 PK WND 32021/1719
                 SLP183 T10231092 =
2018-02-18 17:00 METAR CWOD 181700Z AUTO 29014G20KT M03/M07 RMK AO1 SOG 22 1029 PK WND 29020/1650
                 SLP171 T10311067 =
2018-02-18 16:00 METAR CWOD 181600Z AUTO 29009KT M02/M08 RMK AO1 SOG 22 1032 SLP163 T10241083 =
2018-02-18 15:00 METAR CWOD 181500Z AUTO 27012KT M04/M08 RMK AO1 SOG 22 3034 SLP155 T10381075 =
2018-02-18 14:00 METAR CWOD 181400Z AUTO 27011KT M05/M09 RMK AO1 SOG 23 3030 SLP142 T10461090 =
2018-02-18 13:00 METAR CWOD 181300Z AUTO 22002KT M08/M11 RMK AO1 SOG 22 3025 SLP132 T10811110 =
2018-02-18 12:00 METAR CWOD 181200Z AUTO 13003KT M08/M11 RMK AO1 SOG 23 3019 SLP121 T10791107 =
2018-02-18 11:00 METAR CWOD 181100Z AUTO 15004KT M08/M11 RMK AO1 SOG 23 3012 SLP112 T10771108 =

Support USWX by starting your Amazon purchase here.